Weather at Broken Hill Airport

Public forecast

Using degrees Celsius for public forecast. Weather courtesy of forecast.io.

Current aviation weather report (METAR) for Broken Hill Airport

Retrieved 2021/09/25 12:00 UTC (23 minutes ago):

YBHI 251200Z AUTO 14009KT 9999 // NCD 12/M01 Q1023

Closest aviation forecast (TAF) to Broken Hill Airport

Forecast is more than 12 hours old.

Closest forecast is Whyalla Airport, 210.2 nm (389.2 km) WSW. Retrieved 2018/11/15 18:03 UTC (3 years ago):

TAF YWHA 151701Z 1518/1608 VRB05KT CAVOK FM152300 18012KT CAVOK FM160200 18018KT CAVOK